Time;durP1;ratioP1;P1;durP2;ratioP2;P2;SDS_P1;SDS_P2;PMS_P1;PMS_P2;Temp;Humidity;BMP_temperature;BMP_pressure;BME280_temperature;BME280_humidity;BME280_pressure;Samples;Min_cycle;Max_cycle;Signal;HPM_P1;HPM_P2
2023/03/24 00:02:18;;;;;;;10.55;8.85;;;13.60;64.10;;;;;;5075574;28;20102;-67
2023/03/24 00:04:47;;;;;;;10.93;8.20;;;13.60;64.20;;;;;;5070763;28;20044;-68
2023/03/24 00:07:13;;;;;;;12.45;8.93;;;13.50;64.30;;;;;;5074857;28;20032;-69
2023/03/24 00:09:40;;;;;;;11.10;8.52;;;13.50;64.40;;;;;;5071256;28;20367;-71
2023/03/24 00:12:12;;;;;;;12.65;9.00;;;13.50;64.40;;;;;;5085139;28;20039;-60
2023/03/24 00:14:39;;;;;;;11.57;9.52;;;13.50;64.50;;;;;;5075637;28;20067;-61
2023/03/24 00:17:08;;;;;;;11.18;8.60;;;13.50;64.60;;;;;;5065434;28;20477;-57
2023/03/24 00:19:37;;;;;;;11.65;9.07;;;13.50;64.60;;;;;;5082319;28;20039;-56
2023/03/24 00:22:04;;;;;;;11.93;9.43;;;13.60;64.60;;;;;;5080303;28;20037;-58
2023/03/24 00:24:30;;;;;;;11.07;9.60;;;13.60;64.50;;;;;;5073869;28;20447;-56
2023/03/24 00:26:56;;;;;;;12.60;9.25;;;13.60;64.40;;;;;;5081590;28;20032;-57
2023/03/24 00:29:23;;;;;;;11.43;8.82;;;13.60;64.50;;;;;;5083572;28;20032;-58
2023/03/24 00:31:51;;;;;;;11.32;8.85;;;13.60;64.40;;;;;;5074338;28;20462;-58
2023/03/24 00:34:20;;;;;;;11.85;8.55;;;13.60;64.50;;;;;;5074983;28;20620;-57
2023/03/24 00:36:49;;;;;;;10.48;8.25;;;13.60;64.40;;;;;;5086415;28;20217;-69
2023/03/24 00:39:19;;;;;;;11.85;8.60;;;13.60;64.50;;;;;;5073693;28;20474;-71
2023/03/24 00:41:46;;;;;;;10.40;8.23;;;13.50;64.50;;;;;;5079764;28;20463;-60
2023/03/24 00:44:17;;;;;;;10.75;8.30;;;13.50;64.50;;;;;;5081257;28;20127;-60
2023/03/24 00:46:44;;;;;;;14.70;9.10;;;13.50;64.60;;;;;;5079237;28;20375;-60
2023/03/24 00:49:11;;;;;;;10.82;8.15;;;13.50;64.60;;;;;;5079624;28;20130;-60
2023/03/24 00:51:41;;;;;;;12.73;9.18;;;13.50;64.60;;;;;;5074209;28;20538;-59
2023/03/24 00:54:09;;;;;;;11.07;8.55;;;13.50;64.70;;;;;;5092234;28;20040;-59
2023/03/24 00:56:38;;;;;;;8.60;7.65;;;13.50;64.60;;;;;;5083121;28;20066;-59
2023/03/24 00:59:05;;;;;;;9.63;8.18;;;13.50;65.20;;;;;;5082867;28;20039;-58
2023/03/24 01:01:33;;;;;;;10.52;8.27;;;13.40;64.60;;;;;;5079757;28;20038;-58
2023/03/24 01:04:01;;;;;;;12.43;9.15;;;13.40;64.60;;;;;;5076248;28;20091;-59
2023/03/24 01:06:27;;;;;;;10.98;8.82;;;13.50;64.60;;;;;;5070428;28;20097;-59
2023/03/24 01:08:53;;;;;;;11.52;8.00;;;13.50;64.60;;;;;;5074411;28;20036;-60
2023/03/24 01:11:24;;;;;;;12.02;8.45;;;13.40;64.60;;;;;;5084659;28;20609;-67
2023/03/24 01:13:51;;;;;;;11.93;8.77;;;13.40;64.60;;;;;;5074867;28;20120;-67
2023/03/24 01:16:17;;;;;;;13.32;9.05;;;13.40;64.60;;;;;;5067460;28;20085;-60
2023/03/24 01:18:43;;;;;;;11.60;8.40;;;13.40;64.60;;;;;;5078545;28;20036;-60
2023/03/24 01:21:10;;;;;;;10.55;7.60;;;13.40;64.60;;;;;;5077195;28;20044;-66
2023/03/24 01:23:37;;;;;;;10.95;7.82;;;13.40;64.70;;;;;;5076654;28;20071;-68
2023/03/24 01:26:08;;;;;;;8.73;7.20;;;13.40;64.70;;;;;;5077123;28;20044;-69
2023/03/24 01:28:39;;;;;;;;;;;13.40;64.70;;;;;;5088060;28;20028;-69
2023/03/24 01:31:08;;;;;;;8.65;6.40;;;13.40;64.70;;;;;;5067916;28;19993;-69
2023/03/24 01:33:36;;;;;;;10.07;6.82;;;13.40;64.70;;;;;;5077001;28;20036;-69
2023/03/24 01:36:02;;;;;;;9.07;7.10;;;13.40;64.80;;;;;;5077062;28;20056;-69
2023/03/24 01:38:28;;;;;;;12.00;8.40;;;13.40;64.90;;;;;;5080869;28;20123;-70
2023/03/24 01:40:54;;;;;;;9.90;7.80;;;13.30;65.00;;;;;;5078214;28;20112;-58
2023/03/24 01:43:22;;;;;;;9.18;7.57;;;13.40;65.00;;;;;;5073373;28;20056;-57
2023/03/24 01:46:11;;;;;;;10.50;7.82;;;13.40;65.00;;;;;;5080226;28;20374;-60
2023/03/24 01:48:54;;;;;;;10.95;8.57;;;13.40;65.00;;;;;;5073469;28;20453;-58
2023/03/24 01:51:24;;;;;;;9.95;7.88;;;13.40;65.10;;;;;;5076000;28;20074;-71
2023/03/24 01:53:58;;;;;;;7.72;6.95;;;13.30;65.00;;;;;;5074338;28;20044;-69
2023/03/24 01:56:25;;;;;;;10.80;7.90;;;13.40;65.00;;;;;;5079037;28;20443;-58
2023/03/24 01:58:57;;;;;;;9.77;7.47;;;13.30;65.00;;;;;;5077385;28;20392;-58
2023/03/24 02:01:25;;;;;;;8.48;6.85;;;13.30;65.00;;;;;;5071096;28;20033;-67
2023/03/24 02:03:51;;;;;;;10.82;8.43;;;13.40;65.10;;;;;;5075565;28;20040;-70
2023/03/24 02:06:18;;;;;;;9.98;7.85;;;13.30;65.00;;;;;;5073205;28;20412;-70
2023/03/24 02:08:57;;;;;;;10.10;7.43;;;13.30;65.10;;;;;;5077973;28;20398;-70
2023/03/24 02:11:27;;;;;;;9.23;7.05;;;13.30;65.20;;;;;;5076232;28;20460;-65
2023/03/24 02:13:53;;;;;;;10.20;7.50;;;13.30;65.10;;;;;;5075286;28;20437;-64
2023/03/24 02:16:43;;;;;;;7.97;6.95;;;13.20;65.30;;;;;;5072570;28;20040;-69
2023/03/24 02:19:38;;;;;;;8.93;7.18;;;13.20;65.30;;;;;;5074371;28;20041;-69
2023/03/24 02:22:07;;;;;;;11.48;7.38;;;13.20;65.50;;;;;;5070869;28;20031;-69
2023/03/24 02:25:10;;;;;;;8.77;7.47;;;13.10;65.50;;;;;;5077327;28;20498;-70
2023/03/24 02:27:59;;;;;;;10.93;7.78;;;13.10;65.70;;;;;;5069548;28;20033;-70
2023/03/24 02:31:20;;;;;;;9.63;7.43;;;13.10;65.70;;;;;;5067212;28;20474;-68
2023/03/24 02:33:57;;;;;;;11.80;6.82;;;13.00;65.70;;;;;;4969810;28;20114;-70
2023/03/24 02:36:57;;;;;;;10.98;7.38;;;13.00;65.70;;;;;;5060270;28;20548;-69
2023/03/24 02:39:31;;;;;;;8.00;6.65;;;13.00;65.70;;;;;;5073744;28;20028;-69
2023/03/24 02:41:57;;;;;;;11.60;7.93;;;13.00;65.70;;;;;;5077489;28;20036;-69
2023/03/24 02:44:25;;;;;;;13.55;8.35;;;13.00;65.80;;;;;;5076907;28;20036;-69
2023/03/24 02:47:03;;;;;;;11.35;8.85;;;13.00;65.90;;;;;;5077664;28;20380;-68
2023/03/24 02:49:49;;;;;;;13.07;9.27;;;13.00;65.90;;;;;;5071250;28;20096;-66
2023/03/24 02:52:30;;;;;;;12.88;9.23;;;12.90;65.80;;;;;;5073513;28;20020;-58
2023/03/24 02:55:04;;;;;;;13.55;9.75;;;12.90;65.90;;;;;;5073161;28;20040;-59
2023/03/24 02:57:38;;;;;;;11.38;9.50;;;12.90;65.90;;;;;;5080133;28;20104;-58
2023/03/24 03:00:41;;;;;;;12.00;8.75;;;12.90;65.90;;;;;;5079571;28;20025;-59
2023/03/24 03:03:20;;;;;;;10.57;8.50;;;12.90;65.90;;;;;;5075720;28;20062;-57
2023/03/24 03:05:58;;;;;;;10.68;8.32;;;12.90;65.90;;;;;;5077360;28;20044;-58
2023/03/24 03:08:31;;;;;;;11.25;8.60;;;12.90;66.00;;;;;;5081396;28;20020;-56
2023/03/24 03:10:58;;;;;;;13.77;8.80;;;12.90;66.10;;;;;;5071701;28;20042;-57
2023/03/24 03:13:36;;;;;;;10.75;8.48;;;12.90;66.10;;;;;;5071921;28;20466;-57
2023/03/24 03:16:09;;;;;;;12.43;8.30;;;12.90;66.20;;;;;;5075551;28;20363;-68
2023/03/24 03:18:48;;;;;;;12.02;8.60;;;12.90;66.30;;;;;;5076827;28;20032;-70
2023/03/24 03:21:16;;;;;;;12.70;9.13;;;12.90;66.20;;;;;;5086331;28;20405;-67
2023/03/24 03:24:25;;;;;;;10.32;7.88;;;12.90;66.20;;;;;;5068505;28;20059;-69
2023/03/24 03:26:56;;;;;;;11.27;8.45;;;12.80;66.20;;;;;;5053573;28;20040;-57
2023/03/24 03:29:25;;;;;;;10.02;7.90;;;12.80;66.20;;;;;;5061691;28;20364;-58
2023/03/24 03:31:58;;;;;;;13.63;8.18;;;12.80;66.20;;;;;;5064083;28;20166;-58
2023/03/24 03:34:29;;;;;;;12.07;8.80;;;12.80;66.40;;;;;;5074821;28;20033;-59
2023/03/24 03:37:42;;;;;;;10.93;7.88;;;12.70;66.40;;;;;;5069094;28;20046;-69
2023/03/24 03:40:11;;;;;;;10.93;8.05;;;12.70;66.50;;;;;;4997909;28;20084;-67
2023/03/24 03:42:37;;;;;;;10.05;7.40;;;12.70;66.50;;;;;;5048702;28;20036;-70
2023/03/24 03:45:05;;;;;;;10.23;8.13;;;12.60;66.60;;;;;;5067298;28;20062;-69
2023/03/24 03:47:31;;;;;;;9.02;7.30;;;12.60;66.70;;;;;;5083485;28;20518;-68
2023/03/24 03:49:57;;;;;;;10.55;7.35;;;12.60;66.70;;;;;;5075313;28;20115;-70
2023/03/24 03:52:22;;;;;;;10.30;6.95;;;12.60;66.70;;;;;;5074630;28;20146;-69
2023/03/24 03:54:50;;;;;;;9.10;7.30;;;12.70;66.80;;;;;;5074557;28;20119;-71
2023/03/24 03:57:17;;;;;;;10.13;7.32;;;12.60;66.80;;;;;;5078142;28;20047;-70
2023/03/24 03:59:43;;;;;;;9.75;7.65;;;12.70;66.90;;;;;;5071658;28;20549;-66
2023/03/24 04:02:34;;;;;;;11.00;7.70;;;12.70;66.90;;;;;;5074708;28;20041;-58
2023/03/24 04:05:14;;;;;;;9.07;7.63;;;12.70;67.00;;;;;;5074870;28;20450;-58
2023/03/24 04:08:04;;;;;;;9.70;8.57;;;12.70;66.90;;;;;;5078648;28;20276;-57
2023/03/24 04:10:57;;;;;;;10.38;8.82;;;12.70;66.90;;;;;;5071290;28;20025;-57
2023/03/24 04:13:51;;;;;;;12.05;8.77;;;12.80;66.90;;;;;;5081715;28;20029;-58
2023/03/24 04:16:39;;;;;;;10.77;8.07;;;12.80;67.00;;;;;;5072390;28;20032;-60
2023/03/24 04:19:24;;;;;;;11.70;9.18;;;12.80;67.10;;;;;;5068308;28;20388;-60
2023/03/24 04:22:06;;;;;;;10.93;7.65;;;12.80;67.00;;;;;;5086855;28;20035;-57
2023/03/24 04:25:00;;;;;;;11.00;7.35;;;12.80;66.90;;;;;;5081703;28;20044;-57
2023/03/24 04:27:45;;;;;;;9.70;7.10;;;12.90;66.80;;;;;;5078010;28;20039;-59
2023/03/24 04:30:14;;;;;;;10.13;7.78;;;12.90;66.90;;;;;;5071187;28;20112;-58
2023/03/24 04:32:47;;;;;;;12.02;8.10;;;12.90;66.70;;;;;;5076979;28;20103;-57
2023/03/24 04:35:39;;;;;;;10.18;7.30;;;12.90;66.60;;;;;;5072157;28;20039;-58
2023/03/24 04:38:15;;;;;;;10.70;7.50;;;12.90;66.60;;;;;;5063992;28;20074;-57
2023/03/24 04:40:44;;;;;;;11.15;7.68;;;12.90;66.60;;;;;;5077675;28;20103;-58
2023/03/24 04:43:15;;;;;;;11.65;8.68;;;12.90;66.60;;;;;;5061320;28;20448;-58
2023/03/24 04:45:48;;;;;;;12.57;9.15;;;13.00;66.60;;;;;;5067016;28;20146;-58
2023/03/24 04:48:16;;;;;;;11.85;9.30;;;13.00;66.50;;;;;;5078424;28;20031;-58
2023/03/24 04:50:46;;;;;;;10.63;8.73;;;13.00;66.50;;;;;;5077462;28;21340;-58
2023/03/24 04:53:12;;;;;;;9.55;8.05;;;13.10;66.50;;;;;;5079758;28;20061;-58
2023/03/24 04:55:56;;;;;;;12.70;9.27;;;13.10;66.40;;;;;;5080688;28;20423;-58
2023/03/24 04:58:22;;;;;;;11.98;8.30;;;13.10;66.30;;;;;;5072423;28;20024;-59
2023/03/24 05:00:48;;;;;;;14.07;8.90;;;13.10;66.40;;;;;;5077226;28;20353;-58
2023/03/24 05:03:16;;;;;;;11.10;8.38;;;13.10;66.40;;;;;;5074000;28;20048;-58
2023/03/24 05:05:45;;;;;;;11.80;8.90;;;13.10;66.50;;;;;;5082121;28;20501;-57
2023/03/24 05:08:11;;;;;;;12.98;9.15;;;13.10;66.60;;;;;;5069781;28;20024;-58
2023/03/24 05:10:38;;;;;;;12.23;9.30;;;13.10;66.60;;;;;;5065529;28;20051;-58
2023/03/24 05:13:05;;;;;;;10.68;9.02;;;13.10;66.60;;;;;;5088760;28;20035;-56
2023/03/24 05:15:31;;;;;;;12.43;9.07;;;13.20;66.60;;;;;;5081445;28;20043;-66
2023/03/24 05:17:57;;;;;;;10.70;8.50;;;13.20;66.40;;;;;;5075722;28;20033;-60
2023/03/24 05:20:24;;;;;;;9.63;8.13;;;13.20;66.50;;;;;;5077354;28;20121;-67
2023/03/24 05:22:50;;;;;;;12.55;7.78;;;13.20;66.60;;;;;;5063889;28;20435;-67
2023/03/24 05:25:17;;;;;;;9.10;6.65;;;13.20;66.60;;;;;;5078046;28;20075;-58
2023/03/24 05:27:43;;;;;;;9.20;7.40;;;13.20;66.60;;;;;;5066253;28;20736;-57
2023/03/24 05:30:09;;;;;;;11.07;7.47;;;13.20;66.60;;;;;;5076358;28;20032;-57
2023/03/24 05:32:35;;;;;;;10.32;7.38;;;13.20;66.60;;;;;;5075311;28;20454;-55
2023/03/24 05:35:01;;;;;;;10.93;7.53;;;13.20;66.70;;;;;;5070116;28;20044;-56
2023/03/24 05:37:27;;;;;;;10.55;7.43;;;13.20;66.70;;;;;;5070763;28;20055;-57
2023/03/24 05:39:53;;;;;;;10.70;7.32;;;13.20;66.70;;;;;;5068718;28;20471;-57
2023/03/24 05:42:19;;;;;;;9.65;7.22;;;13.20;66.70;;;;;;5070322;28;20043;-57
2023/03/24 05:44:45;;;;;;;7.95;6.47;;;13.20;66.70;;;;;;5069695;28;20096;-56
2023/03/24 05:47:14;;;;;;;9.13;6.63;;;13.30;66.80;;;;;;5081794;28;20042;-60
2023/03/24 05:49:44;;;;;;;9.32;6.97;;;13.30;66.70;;;;;;5073968;28;20568;-57
2023/03/24 05:52:10;;;;;;;8.32;6.95;;;13.40;66.90;;;;;;5064337;28;20123;-57
2023/03/24 05:54:38;;;;;;;9.88;7.45;;;13.50;67.00;;;;;;5070818;28;20045;-59
2023/03/24 05:57:09;;;;;;;8.63;6.75;;;13.70;67.00;;;;;;5074449;28;20039;-57
2023/03/24 05:59:36;;;;;;;8.77;7.07;;;13.90;66.70;;;;;;5057011;28;20522;-57
2023/03/24 06:02:02;;;;;;;7.47;6.40;;;14.10;67.00;;;;;;5065341;28;20074;-59
2023/03/24 06:04:29;;;;;;;8.40;6.90;;;14.30;65.90;;;;;;5076736;28;20046;-56
2023/03/24 06:07:00;;;;;;;11.30;7.00;;;14.30;65.50;;;;;;5074178;28;20029;-57
2023/03/24 06:09:31;;;;;;;8.70;6.75;;;14.40;65.40;;;;;;5068429;28;20107;-57
2023/03/24 06:12:06;;;;;;;9.70;7.20;;;14.40;65.20;;;;;;5068944;28;20025;-57
2023/03/24 06:14:32;;;;;;;8.60;6.30;;;14.50;65.10;;;;;;5080827;28;20032;-58
2023/03/24 06:16:58;;;;;;;7.95;6.20;;;14.40;65.00;;;;;;5073013;28;20051;-58
2023/03/24 06:19:25;;;;;;;8.02;6.93;;;14.50;65.10;;;;;;5073847;28;20032;-57
2023/03/24 06:21:52;;;;;;;8.85;7.07;;;14.50;65.00;;;;;;5065061;28;20623;-58
2023/03/24 06:24:18;;;;;;;9.52;7.43;;;14.50;65.00;;;;;;5063235;28;20056;-58
2023/03/24 06:26:48;;;;;;;11.00;7.03;;;14.50;64.90;;;;;;5060604;28;20458;-58
2023/03/24 06:29:16;;;;;;;8.55;6.50;;;14.60;65.00;;;;;;5066153;28;20040;-54
2023/03/24 06:31:46;;;;;;;7.97;6.20;;;14.60;65.00;;;;;;5065912;28;20127;-57
2023/03/24 06:34:12;;;;;;;19.52;7.72;;;14.70;65.00;;;;;;5071634;28;20036;-62
2023/03/24 06:36:38;;;;;;;8.30;6.65;;;14.80;64.90;;;;;;5069879;28;20039;-56
2023/03/24 06:39:07;;;;;;;8.57;6.13;;;14.80;64.60;;;;;;5079119;28;20024;-61
2023/03/24 06:41:33;;;;;;;9.43;6.35;;;14.80;64.70;;;;;;5084407;28;20038;-58
2023/03/24 06:43:59;;;;;;;8.07;6.53;;;14.80;64.50;;;;;;5076849;28;20612;-58
2023/03/24 06:46:25;;;;;;;7.38;6.00;;;14.90;64.50;;;;;;5067896;28;20032;-57
2023/03/24 06:48:51;;;;;;;12.23;7.68;;;14.90;64.30;;;;;;5069373;28;20025;-57
2023/03/24 06:51:16;;;;;;;9.25;6.70;;;14.90;64.20;;;;;;5066346;28;20450;-59
2023/03/24 06:53:44;;;;;;;9.77;6.88;;;14.90;64.20;;;;;;5069783;28;20035;-61
2023/03/24 06:56:15;;;;;;;7.70;6.43;;;15.00;64.30;;;;;;5046410;28;20531;-56
2023/03/24 06:58:42;;;;;;;8.23;6.40;;;15.00;64.10;;;;;;5071654;28;20414;-56
2023/03/24 07:01:08;;;;;;;8.15;6.10;;;15.00;63.90;;;;;;5060874;28;20589;-59
2023/03/24 07:03:33;;;;;;;7.88;6.22;;;15.10;63.80;;;;;;5054009;28;20123;-57
2023/03/24 07:05:59;;;;;;;7.75;6.38;;;15.10;63.70;;;;;;5066498;28;20029;-56
2023/03/24 07:08:25;;;;;;;10.20;7.13;;;15.10;63.70;;;;;;5070728;28;20032;-59
2023/03/24 07:10:50;;;;;;;8.35;6.65;;;15.20;63.60;;;;;;5062930;28;20048;-56
2023/03/24 07:13:16;;;;;;;12.45;7.07;;;15.20;63.60;;;;;;5057518;28;20056;-60
2023/03/24 07:15:42;;;;;;;8.18;6.32;;;15.30;63.60;;;;;;5053101;28;20139;-56
2023/03/24 07:18:07;;;;;;;8.25;7.00;;;15.30;63.30;;;;;;5056610;28;20032;-57
2023/03/24 07:20:33;;;;;;;8.63;6.45;;;15.30;63.90;;;;;;5052514;28;20021;-57
2023/03/24 07:22:59;;;;;;;8.98;6.82;;;15.40;63.30;;;;;;5051692;28;21453;-57
2023/03/24 07:25:25;;;;;;;7.80;6.28;;;15.50;63.20;;;;;;5050650;28;20036;-56
2023/03/24 07:27:55;;;;;;;8.50;6.50;;;15.50;63.10;;;;;;5059739;28;20047;-55
2023/03/24 07:30:21;;;;;;;9.10;6.68;;;15.60;63.00;;;;;;5051526;28;20029;-61
2023/03/24 07:32:48;;;;;;;8.23;6.75;;;15.60;62.80;;;;;;5052114;28;20028;-58
2023/03/24 07:35:15;;;;;;;8.52;6.75;;;15.70;62.80;;;;;;5036468;28;20230;-61
2023/03/24 07:37:41;;;;;;;8.68;7.28;;;15.80;62.60;;;;;;5054198;28;20048;-53
2023/03/24 07:40:12;;;;;;;8.95;6.55;;;15.80;62.40;;;;;;5055580;28;20507;-56
2023/03/24 07:42:40;;;;;;;10.55;6.72;;;15.90;62.40;;;;;;5049363;28;20024;-57
2023/03/24 07:45:08;;;;;;;8.20;6.43;;;16.00;62.40;;;;;;5053655;28;20116;-54
2023/03/24 07:47:34;;;;;;;8.50;6.40;;;16.00;62.10;;;;;;5063828;28;20077;-57
2023/03/24 07:50:02;;;;;;;8.18;5.90;;;16.10;61.90;;;;;;5052681;28;20020;-57
2023/03/24 07:52:29;;;;;;;9.88;7.07;;;16.20;61.80;;;;;;5047181;28;20425;-55
2023/03/24 07:54:55;;;;;;;7.55;6.50;;;16.20;61.60;;;;;;5063159;28;20032;-59
2023/03/24 07:57:21;;;;;;;7.97;6.07;;;16.30;61.60;;;;;;5046381;28;20028;-55
2023/03/24 07:59:48;;;;;;;7.07;5.63;;;16.40;61.60;;;;;;5046881;28;20118;-51
2023/03/24 08:02:18;;;;;;;8.48;6.22;;;16.60;61.50;;;;;;5049028;28;20024;-58
2023/03/24 08:04:43;;;;;;;7.00;6.00;;;16.60;61.30;;;;;;5047940;28;20044;-52
2023/03/24 08:07:11;;;;;;;8.25;6.43;;;16.70;61.40;;;;;;5060667;28;20393;-57
2023/03/24 08:09:38;;;;;;;8.88;6.43;;;16.70;61.10;;;;;;5054582;28;20159;-58
2023/03/24 08:12:03;;;;;;;7.13;5.32;;;16.80;60.80;;;;;;5053981;28;20033;-57
2023/03/24 08:14:29;;;;;;;7.50;6.13;;;16.90;60.70;;;;;;5048721;28;20037;-58
2023/03/24 08:16:55;;;;;;;8.32;6.45;;;16.90;60.80;;;;;;5051357;28;20052;-57
2023/03/24 08:19:20;;;;;;;6.60;5.75;;;17.00;60.70;;;;;;5056562;28;20084;-55
2023/03/24 08:21:46;;;;;;;7.50;6.15;;;17.00;60.60;;;;;;5052751;28;20032;-60
2023/03/24 08:24:12;;;;;;;7.45;6.22;;;17.10;60.30;;;;;;5049083;28;20415;-53
2023/03/24 08:26:37;;;;;;;8.68;6.60;;;17.20;60.30;;;;;;5050744;28;20037;-58
2023/03/24 08:29:03;;;;;;;8.57;6.65;;;17.20;60.20;;;;;;5038145;28;20025;-62
2023/03/24 08:31:35;;;;;;;8.40;6.72;;;17.30;60.20;;;;;;5046957;28;20095;-59
2023/03/24 08:34:03;;;;;;;8.73;6.88;;;17.30;60.10;;;;;;5049459;28;20031;-60
2023/03/24 08:36:29;;;;;;;10.20;7.00;;;17.40;60.00;;;;;;5037006;28;20028;-56
2023/03/24 08:38:55;;;;;;;8.15;6.35;;;17.50;60.00;;;;;;5047413;28;20480;-59
2023/03/24 08:41:29;;;;;;;9.13;6.43;;;17.50;59.90;;;;;;5050628;28;20044;-54
2023/03/24 08:43:55;;;;;;;7.95;6.35;;;17.60;59.70;;;;;;5053716;28;20032;-60
2023/03/24 08:46:21;;;;;;;9.02;7.15;;;17.70;59.70;;;;;;5054138;28;22321;-58
2023/03/24 08:48:47;;;;;;;8.55;6.40;;;17.70;59.30;;;;;;5047887;28;20715;-61
2023/03/24 08:51:16;;;;;;;9.27;6.40;;;17.70;59.30;;;;;;5044262;28;20056;-57
2023/03/24 08:53:42;;;;;;;7.95;6.28;;;17.70;59.20;;;;;;5053072;28;20035;-57
2023/03/24 08:56:08;;;;;;;8.45;6.18;;;17.80;59.20;;;;;;5048918;28;20045;-58
2023/03/24 08:58:33;;;;;;;8.68;6.88;;;17.80;59.10;;;;;;5053757;28;20082;-57
2023/03/24 09:01:00;;;;;;;8.48;6.10;;;17.80;59.10;;;;;;5047379;28;20036;-60
2023/03/24 09:03:26;;;;;;;9.90;6.78;;;17.90;59.10;;;;;;5043463;28;20039;-61
2023/03/24 09:05:58;;;;;;;7.45;5.85;;;17.90;59.20;;;;;;5048058;28;20671;-57
2023/03/24 09:08:24;;;;;;;9.20;6.43;;;18.00;59.10;;;;;;5045996;28;20029;-57
2023/03/24 09:10:50;;;;;;;7.90;6.40;;;18.10;58.80;;;;;;5047149;28;20570;-61
2023/03/24 09:13:18;;;;;;;8.23;6.88;;;18.10;58.80;;;;;;5058217;28;20044;-56
2023/03/24 09:15:48;;;;;;;7.07;6.03;;;18.20;58.60;;;;;;5045349;28;20488;-58
2023/03/24 09:18:14;;;;;;;8.23;6.77;;;18.20;58.50;;;;;;5049655;28;20171;-58
2023/03/24 09:20:40;;;;;;;7.82;5.78;;;18.30;58.40;;;;;;5046326;28;20032;-62
2023/03/24 09:23:06;;;;;;;9.27;6.70;;;18.40;58.50;;;;;;5046073;28;20052;-56
2023/03/24 09:25:31;;;;;;;8.15;6.63;;;18.50;58.20;;;;;;5046846;28;20036;-57
2023/03/24 09:27:57;;;;;;;8.90;6.78;;;18.50;58.00;;;;;;5047241;28;20028;-59
2023/03/24 09:30:23;;;;;;;7.20;6.00;;;18.60;57.60;;;;;;5046866;28;20090;-58
2023/03/24 09:32:48;;;;;;;9.07;6.28;;;18.70;57.70;;;;;;5048458;28;20060;-58
2023/03/24 09:35:14;;;;;;;7.55;6.00;;;18.70;57.60;;;;;;5049745;28;20470;-61
2023/03/24 09:37:42;;;;;;;7.22;6.53;;;18.70;58.20;;;;;;5055701;28;20390;-55
2023/03/24 09:40:18;;;;;;;7.15;6.07;;;18.70;57.40;;;;;;5057009;28;20586;-61
2023/03/24 09:42:45;;;;;;;8.30;5.40;;;18.80;57.40;;;;;;5050576;28;20122;-57
2023/03/24 09:45:19;;;;;;;11.57;6.53;;;18.80;57.20;;;;;;5030778;28;21250;-61
2023/03/24 09:48:10;;;;;;;9.13;6.60;;;18.90;57.20;;;;;;5041656;28;20083;-60
2023/03/24 09:50:46;;;;;;;8.52;6.50;;;18.90;57.10;;;;;;5042261;28;20144;-61
2023/03/24 09:53:33;;;;;;;8.30;6.20;;;19.00;57.10;;;;;;5040454;28;20411;-57
2023/03/24 09:56:13;;;;;;;8.52;5.95;;;19.00;56.60;;;;;;5044489;28;20039;-61
2023/03/24 09:58:40;;;;;;;8.38;6.20;;;19.00;56.80;;;;;;5044518;28;20893;-56
2023/03/24 10:01:11;;;;;;;6.38;5.38;;;19.10;56.70;;;;;;5048943;28;20144;-57
2023/03/24 10:03:36;;;;;;;6.10;5.50;;;19.10;56.60;;;;;;5039771;28;20029;-60
2023/03/24 10:06:20;;;;;;;9.40;6.20;;;19.10;56.80;;;;;;5042447;28;20523;-60
2023/03/24 10:08:53;;;;;;;7.70;5.97;;;19.20;56.10;;;;;;5033357;28;20032;-62
2023/03/24 10:11:27;;;;;;;7.18;4.90;;;19.20;56.40;;;;;;5052726;28;20091;-58
2023/03/24 10:14:15;;;;;;;7.88;5.85;;;19.20;56.40;;;;;;5049874;28;20029;-60
2023/03/24 10:16:58;;;;;;;8.40;5.97;;;19.30;56.20;;;;;;5053068;28;20037;-59
2023/03/24 10:19:46;;;;;;;7.10;6.07;;;19.30;56.30;;;;;;5044012;28;20035;-59
2023/03/24 10:22:42;;;;;;;9.20;6.30;;;19.40;56.20;;;;;;5053796;28;20082;-58
2023/03/24 10:25:50;;;;;;;8.50;5.10;;;19.40;56.00;;;;;;5004935;28;20127;-59
2023/03/24 10:28:57;;;;;;;6.45;4.75;;;19.40;55.80;;;;;;5043414;28;20049;-57
2023/03/24 10:31:29;;;;;;;7.22;5.80;;;19.40;56.00;;;;;;4949203;28;20041;-56
2023/03/24 10:33:56;;;;;;;7.75;5.63;;;19.50;55.90;;;;;;4947805;28;20030;-59
2023/03/24 10:36:23;;;;;;;6.28;4.78;;;19.50;55.90;;;;;;5000310;28;20734;-59
2023/03/24 10:38:50;;;;;;;6.95;5.35;;;19.60;55.70;;;;;;5047540;28;20040;-59
2023/03/24 10:41:21;;;;;;;6.78;5.35;;;19.60;55.70;;;;;;5047675;28;20028;-58
2023/03/24 10:43:49;;;;;;;6.25;5.18;;;19.60;55.60;;;;;;5042237;28;20083;-57
2023/03/24 10:46:21;;;;;;;6.95;5.53;;;19.60;55.60;;;;;;5040679;28;20044;-59
2023/03/24 10:49:10;;;;;;;7.47;5.57;;;19.70;55.60;;;;;;5041429;28;20051;-59
2023/03/24 10:51:36;;;;;;;7.15;5.22;;;19.70;55.70;;;;;;5039137;28;20814;-61
2023/03/24 10:54:19;;;;;;;6.57;5.40;;;19.80;55.70;;;;;;5045661;28;20036;-62
2023/03/24 10:56:46;;;;;;;5.70;4.72;;;19.80;55.70;;;;;;5043207;28;20100;-61
2023/03/24 10:59:20;;;;;;;6.65;5.32;;;19.90;55.50;;;;;;5042100;28;20052;-60
2023/03/24 11:01:46;;;;;;;7.20;5.47;;;19.90;55.60;;;;;;5050352;28;20028;-58
2023/03/24 11:04:16;;;;;;;6.93;5.38;;;19.90;55.50;;;;;;5044663;28;20734;-58
2023/03/24 11:07:12;;;;;;;8.05;5.03;;;20.00;55.50;;;;;;5047032;28;20067;-61
2023/03/24 11:09:44;;;;;;;6.30;5.10;;;20.00;55.50;;;;;;5044323;28;20036;-58
2023/03/24 11:12:25;;;;;;;8.40;4.90;;;20.00;55.30;;;;;;5046957;28;20036;-59
2023/03/24 11:14:59;;;;;;;6.95;4.82;;;20.00;55.30;;;;;;5042004;28;20090;-60
2023/03/24 11:17:25;;;;;;;6.28;4.07;;;20.00;55.50;;;;;;5049664;28;20035;-59
2023/03/24 11:19:56;;;;;;;5.13;3.83;;;20.00;55.50;;;;;;5045442;28;20044;-57
2023/03/24 11:22:22;;;;;;;5.43;3.95;;;20.10;55.60;;;;;;5050624;28;20021;-61
2023/03/24 11:24:55;;;;;;;5.35;3.67;;;20.00;55.40;;;;;;5051156;28;20079;-57
2023/03/24 11:27:22;;;;;;;6.22;4.40;;;20.00;55.60;;;;;;5052329;28;20098;-59
2023/03/24 11:29:53;;;;;;;7.38;4.80;;;20.00;55.80;;;;;;5045253;28;20033;-58
2023/03/24 11:32:28;;;;;;;5.82;3.88;;;20.00;55.90;;;;;;5039367;28;20036;-61
2023/03/24 11:35:12;;;;;;;6.15;4.57;;;20.00;56.00;;;;;;5045411;28;20028;-61
2023/03/24 11:37:40;;;;;;;7.45;4.57;;;20.00;56.00;;;;;;5043137;28;20024;-57
2023/03/24 11:40:11;;;;;;;5.47;3.97;;;20.00;56.50;;;;;;5037704;28;20086;-59
2023/03/24 11:42:49;;;;;;;4.95;3.92;;;20.00;55.90;;;;;;5043509;28;20533;-58
2023/03/24 11:45:28;;;;;;;4.63;3.72;;;20.00;55.90;;;;;;5047083;28;20059;-58
2023/03/24 11:47:58;;;;;;;5.97;4.55;;;20.00;55.90;;;;;;5047478;28;20029;-57
2023/03/24 11:50:30;;;;;;;6.28;3.83;;;19.90;56.10;;;;;;5054604;28;20032;-60
2023/03/24 11:53:09;;;;;;;5.00;4.15;;;20.00;56.30;;;;;;5046339;28;20036;-60
2023/03/24 11:56:10;;;;;;;5.70;4.20;;;20.00;56.10;;;;;;5057998;28;20036;-59
2023/03/24 11:58:47;;;;;;;5.30;4.00;;;20.00;56.20;;;;;;5054743;28;20055;-54
2023/03/24 12:01:19;;;;;;;6.30;4.10;;;20.00;56.20;;;;;;5050189;28;20040;-56
2023/03/24 12:03:45;;;;;;;6.22;4.25;;;20.00;56.40;;;;;;5049523;28;20032;-56
2023/03/24 12:06:46;;;;;;;4.25;3.58;;;20.00;56.30;;;;;;5042925;28;20045;-58
2023/03/24 12:09:35;;;;;;;6.82;3.55;;;20.00;56.30;;;;;;5041479;28;20162;-58
2023/03/24 12:12:35;;;;;;;6.20;4.00;;;20.00;56.30;;;;;;5049388;28;20060;-56
2023/03/24 12:15:19;;;;;;;6.75;4.18;;;20.00;56.30;;;;;;5054498;28;20063;-57
2023/03/24 12:18:10;;;;;;;4.28;3.88;;;20.00;56.50;;;;;;5056653;28;20029;-63
2023/03/24 12:20:57;;;;;;;6.55;3.70;;;19.90;56.30;;;;;;5055743;28;20115;-56
2023/03/24 12:23:47;;;;;;;4.07;3.47;;;19.90;56.10;;;;;;5052774;28;20076;-57
2023/03/24 12:26:30;;;;;;;5.55;4.28;;;19.90;56.20;;;;;;5050701;28;20040;-59
2023/03/24 12:29:40;;;;;;;5.32;4.13;;;19.80;56.20;;;;;;5054933;28;20099;-57
2023/03/24 12:32:24;;;;;;;5.53;4.45;;;19.80;56.30;;;;;;5049009;28;20033;-60
2023/03/24 12:35:29;;;;;;;4.40;3.53;;;19.80;56.40;;;;;;5043852;28;20383;-58
2023/03/24 12:38:13;;;;;;;5.15;3.90;;;19.80;56.30;;;;;;5053381;28;20114;-59
2023/03/24 12:41:06;;;;;;;4.68;3.60;;;19.80;56.30;;;;;;5048026;28;20093;-58
2023/03/24 12:43:35;;;;;;;4.10;3.40;;;19.80;56.20;;;;;;5050220;28;20064;-59
2023/03/24 12:46:34;;;;;;;5.25;3.90;;;19.70;56.30;;;;;;5047851;28;20043;-61
2023/03/24 12:49:14;;;;;;;4.75;4.22;;;19.70;56.30;;;;;;5015538;28;20567;-60
2023/03/24 12:52:00;;;;;;;5.78;4.20;;;19.70;56.30;;;;;;5039277;28;20119;-56
2023/03/24 12:54:45;;;;;;;5.60;4.40;;;19.70;56.40;;;;;;5045088;28;20043;-60
2023/03/24 12:57:16;;;;;;;5.90;4.45;;;19.60;56.40;;;;;;5036074;28;21257;-58
2023/03/24 12:59:50;;;;;;;5.38;3.92;;;19.60;56.50;;;;;;5019844;28;20036;-60
2023/03/24 13:02:25;;;;;;;4.38;3.83;;;19.60;56.50;;;;;;5032245;28;20024;-56
2023/03/24 13:04:56;;;;;;;3.88;3.28;;;19.60;56.50;;;;;;5035812;28;20073;-56
2023/03/24 13:07:27;;;;;;;5.45;3.40;;;19.60;56.50;;;;;;5049853;28;20033;-59
2023/03/24 13:10:00;;;;;;;;;;;19.60;56.50;;;;;;5053220;28;20538;-56
2023/03/24 13:12:44;;;;;;;5.97;4.00;;;19.60;56.30;;;;;;5041080;28;19916;-59